sensor_id;sensor_type;location;lat;lon;timestamp;P1;durP1;ratioP1;P2;durP2;ratioP2
73132;SDS011;61320;52.008;4.530;2022-09-09T00:00:53;5.59;;;5.59;;
73132;SDS011;61320;52.008;4.530;2022-09-09T00:03:48;5.28;;;5.28;;
73132;SDS011;61320;52.008;4.530;2022-09-09T00:06:28;5.79;;;5.79;;
73132;SDS011;61320;52.008;4.530;2022-09-09T00:09:16;5.23;;;5.23;;
73132;SDS011;61320;52.008;4.530;2022-09-09T00:11:46;5.46;;;5.46;;
73132;SDS011;61320;52.008;4.530;2022-09-09T00:14:18;6.04;;;6.04;;
73132;SDS011;61320;52.008;4.530;2022-09-09T00:16:58;5.88;;;5.88;;
73132;SDS011;61320;52.008;4.530;2022-09-09T00:19:29;5.56;;;5.56;;
73132;SDS011;61320;52.008;4.530;2022-09-09T00:24:43;5.87;;;5.87;;
73132;SDS011;61320;52.008;4.530;2022-09-09T00:27:16;5.75;;;5.75;;
73132;SDS011;61320;52.008;4.530;2022-09-09T00:30:13;6.41;;;6.41;;
73132;SDS011;61320;52.008;4.530;2022-09-09T00:32:41;6.60;;;6.60;;
73132;SDS011;61320;52.008;4.530;2022-09-09T00:35:16;6.89;;;6.89;;
73132;SDS011;61320;52.008;4.530;2022-09-09T00:37:48;7.22;;;7.22;;
73132;SDS011;61320;52.008;4.530;2022-09-09T00:40:24;7.32;;;7.32;;
73132;SDS011;61320;52.008;4.530;2022-09-09T00:43:04;7.38;;;7.38;;
73132;SDS011;61320;52.008;4.530;2022-09-09T00:48:57;7.18;;;7.18;;
73132;SDS011;61320;52.008;4.530;2022-09-09T00:52:01;7.93;;;7.93;;
73132;SDS011;61320;52.008;4.530;2022-09-09T00:57:35;8.00;;;8.00;;
73132;SDS011;61320;52.008;4.530;2022-09-09T01:05:23;8.08;;;8.08;;
73132;SDS011;61320;52.008;4.530;2022-09-09T01:10:58;7.76;;;7.76;;
73132;SDS011;61320;52.008;4.530;2022-09-09T01:13:26;7.37;;;7.37;;
73132;SDS011;61320;52.008;4.530;2022-09-09T01:15:55;7.97;;;7.97;;
73132;SDS011;61320;52.008;4.530;2022-09-09T01:18:26;7.83;;;7.83;;
73132;SDS011;61320;52.008;4.530;2022-09-09T01:21:21;7.95;;;7.95;;
73132;SDS011;61320;52.008;4.530;2022-09-09T01:24:15;7.84;;;7.84;;
73132;SDS011;61320;52.008;4.530;2022-09-09T01:26:46;7.95;;;7.95;;
73132;SDS011;61320;52.008;4.530;2022-09-09T01:29:17;7.60;;;7.60;;
73132;SDS011;61320;52.008;4.530;2022-09-09T01:31:56;7.70;;;7.70;;
73132;SDS011;61320;52.008;4.530;2022-09-09T01:34:42;7.57;;;7.56;;
73132;SDS011;61320;52.008;4.530;2022-09-09T01:37:11;7.22;;;7.22;;
73132;SDS011;61320;52.008;4.530;2022-09-09T01:39:39;7.43;;;7.43;;
73132;SDS011;61320;52.008;4.530;2022-09-09T01:42:09;7.21;;;7.21;;
73132;SDS011;61320;52.008;4.530;2022-09-09T01:44:39;7.11;;;7.11;;
73132;SDS011;61320;52.008;4.530;2022-09-09T01:47:05;6.97;;;6.97;;
73132;SDS011;61320;52.008;4.530;2022-09-09T01:49:31;6.39;;;6.39;;
73132;SDS011;61320;52.008;4.530;2022-09-09T01:51:58;6.34;;;6.34;;
73132;SDS011;61320;52.008;4.530;2022-09-09T01:54:26;5.95;;;5.95;;
73132;SDS011;61320;52.008;4.530;2022-09-09T01:57:00;5.56;;;5.56;;
73132;SDS011;61320;52.008;4.530;2022-09-09T01:59:48;5.50;;;5.50;;
73132;SDS011;61320;52.008;4.530;2022-09-09T02:02:38;5.53;;;5.53;;
73132;SDS011;61320;52.008;4.530;2022-09-09T02:08:47;5.12;;;5.12;;
73132;SDS011;61320;52.008;4.530;2022-09-09T02:11:17;4.70;;;4.70;;
73132;SDS011;61320;52.008;4.530;2022-09-09T02:13:45;4.53;;;4.53;;
73132;SDS011;61320;52.008;4.530;2022-09-09T02:19:32;4.42;;;4.42;;
73132;SDS011;61320;52.008;4.530;2022-09-09T02:22:03;4.40;;;4.40;;
73132;SDS011;61320;52.008;4.530;2022-09-09T02:24:30;3.87;;;3.87;;
73132;SDS011;61320;52.008;4.530;2022-09-09T02:27:00;3.82;;;3.82;;
73132;SDS011;61320;52.008;4.530;2022-09-09T02:29:34;4.07;;;4.07;;
73132;SDS011;61320;52.008;4.530;2022-09-09T02:32:06;3.89;;;3.89;;
73132;SDS011;61320;52.008;4.530;2022-09-09T02:34:40;3.51;;;3.51;;
73132;SDS011;61320;52.008;4.530;2022-09-09T02:37:12;3.44;;;3.44;;
73132;SDS011;61320;52.008;4.530;2022-09-09T02:39:43;3.24;;;3.24;;
73132;SDS011;61320;52.008;4.530;2022-09-09T02:42:09;3.68;;;3.68;;
73132;SDS011;61320;52.008;4.530;2022-09-09T02:44:34;3.35;;;3.35;;
73132;SDS011;61320;52.008;4.530;2022-09-09T02:55:07;3.27;;;3.27;;
73132;SDS011;61320;52.008;4.530;2022-09-09T02:57:47;3.58;;;3.58;;
73132;SDS011;61320;52.008;4.530;2022-09-09T03:00:15;3.50;;;3.50;;
73132;SDS011;61320;52.008;4.530;2022-09-09T03:02:40;3.77;;;3.77;;
73132;SDS011;61320;52.008;4.530;2022-09-09T03:05:07;3.81;;;3.81;;
73132;SDS011;61320;52.008;4.530;2022-09-09T03:07:33;3.98;;;3.98;;
73132;SDS011;61320;52.008;4.530;2022-09-09T03:09:58;4.04;;;4.04;;
73132;SDS011;61320;52.008;4.530;2022-09-09T03:12:24;4.06;;;4.06;;
73132;SDS011;61320;52.008;4.530;2022-09-09T03:14:49;4.07;;;4.07;;
73132;SDS011;61320;52.008;4.530;2022-09-09T03:17:15;4.11;;;4.11;;
73132;SDS011;61320;52.008;4.530;2022-09-09T03:19:40;3.81;;;3.81;;
73132;SDS011;61320;52.008;4.530;2022-09-09T03:22:06;3.84;;;3.84;;
73132;SDS011;61320;52.008;4.530;2022-09-09T03:24:33;3.85;;;3.85;;
73132;SDS011;61320;52.008;4.530;2022-09-09T03:26:58;3.63;;;3.63;;
73132;SDS011;61320;52.008;4.530;2022-09-09T03:29:23;3.56;;;3.56;;
73132;SDS011;61320;52.008;4.530;2022-09-09T03:31:49;3.33;;;3.33;;
73132;SDS011;61320;52.008;4.530;2022-09-09T03:34:15;3.44;;;3.44;;
73132;SDS011;61320;52.008;4.530;2022-09-09T03:36:41;3.21;;;3.21;;
73132;SDS011;61320;52.008;4.530;2022-09-09T03:39:06;3.23;;;3.23;;
73132;SDS011;61320;52.008;4.530;2022-09-09T03:41:31;3.33;;;3.33;;
73132;SDS011;61320;52.008;4.530;2022-09-09T03:43:57;3.02;;;3.02;;
73132;SDS011;61320;52.008;4.530;2022-09-09T03:46:23;3.30;;;3.30;;
73132;SDS011;61320;52.008;4.530;2022-09-09T03:48:50;3.19;;;3.19;;
73132;SDS011;61320;52.008;4.530;2022-09-09T03:51:17;3.36;;;3.36;;
73132;SDS011;61320;52.008;4.530;2022-09-09T03:53:43;3.15;;;3.15;;
73132;SDS011;61320;52.008;4.530;2022-09-09T03:56:09;3.41;;;3.40;;
73132;SDS011;61320;52.008;4.530;2022-09-09T03:58:36;3.43;;;3.40;;
73132;SDS011;61320;52.008;4.530;2022-09-09T04:01:03;3.48;;;3.48;;
73132;SDS011;61320;52.008;4.530;2022-09-09T04:03:33;3.49;;;3.48;;
73132;SDS011;61320;52.008;4.530;2022-09-09T04:05:59;3.68;;;3.68;;
73132;SDS011;61320;52.008;4.530;2022-09-09T04:08:27;3.48;;;3.46;;
73132;SDS011;61320;52.008;4.530;2022-09-09T04:10:53;3.17;;;3.16;;
73132;SDS011;61320;52.008;4.530;2022-09-09T04:13:22;3.48;;;3.45;;
73132;SDS011;61320;52.008;4.530;2022-09-09T04:15:51;3.36;;;3.33;;
73132;SDS011;61320;52.008;4.530;2022-09-09T04:18:18;3.36;;;3.30;;
73132;SDS011;61320;52.008;4.530;2022-09-09T04:20:46;3.31;;;3.30;;
73132;SDS011;61320;52.008;4.530;2022-09-09T04:23:12;3.27;;;3.27;;
73132;SDS011;61320;52.008;4.530;2022-09-09T04:25:42;3.17;;;3.17;;
73132;SDS011;61320;52.008;4.530;2022-09-09T04:28:09;3.39;;;3.37;;
73132;SDS011;61320;52.008;4.530;2022-09-09T04:30:35;3.15;;;3.13;;
73132;SDS011;61320;52.008;4.530;2022-09-09T04:33:00;3.12;;;3.11;;
73132;SDS011;61320;52.008;4.530;2022-09-09T04:35:26;2.83;;;2.83;;
73132;SDS011;61320;52.008;4.530;2022-09-09T04:37:52;3.01;;;3.01;;
73132;SDS011;61320;52.008;4.530;2022-09-09T04:40:17;3.19;;;3.19;;
73132;SDS011;61320;52.008;4.530;2022-09-09T04:42:43;2.81;;;2.79;;
73132;SDS011;61320;52.008;4.530;2022-09-09T04:45:16;2.92;;;2.89;;
73132;SDS011;61320;52.008;4.530;2022-09-09T04:47:43;2.83;;;2.83;;
73132;SDS011;61320;52.008;4.530;2022-09-09T04:50:09;3.09;;;3.07;;
73132;SDS011;61320;52.008;4.530;2022-09-09T04:52:37;3.12;;;3.10;;
73132;SDS011;61320;52.008;4.530;2022-09-09T04:55:03;3.05;;;3.05;;
73132;SDS011;61320;52.008;4.530;2022-09-09T04:57:30;3.42;;;3.37;;
73132;SDS011;61320;52.008;4.530;2022-09-09T04:59:58;3.37;;;3.33;;
73132;SDS011;61320;52.008;4.530;2022-09-09T05:02:25;3.48;;;3.48;;
73132;SDS011;61320;52.008;4.530;2022-09-09T05:04:54;3.61;;;3.59;;
73132;SDS011;61320;52.008;4.530;2022-09-09T05:07:20;3.39;;;3.38;;
73132;SDS011;61320;52.008;4.530;2022-09-09T05:09:45;3.46;;;3.46;;
73132;SDS011;61320;52.008;4.530;2022-09-09T05:12:13;3.47;;;3.43;;
73132;SDS011;61320;52.008;4.530;2022-09-09T05:14:38;3.38;;;3.32;;
73132;SDS011;61320;52.008;4.530;2022-09-09T05:17:04;3.08;;;3.04;;
73132;SDS011;61320;52.008;4.530;2022-09-09T05:19:29;3.19;;;3.16;;
73132;SDS011;61320;52.008;4.530;2022-09-09T05:21:56;3.42;;;3.33;;
73132;SDS011;61320;52.008;4.530;2022-09-09T05:24:22;3.41;;;3.40;;
73132;SDS011;61320;52.008;4.530;2022-09-09T05:26:48;3.32;;;3.30;;
73132;SDS011;61320;52.008;4.530;2022-09-09T05:29:13;3.07;;;3.07;;
73132;SDS011;61320;52.008;4.530;2022-09-09T05:31:39;3.37;;;3.33;;
73132;SDS011;61320;52.008;4.530;2022-09-09T05:34:04;3.34;;;3.25;;
73132;SDS011;61320;52.008;4.530;2022-09-09T05:36:30;3.52;;;3.37;;
73132;SDS011;61320;52.008;4.530;2022-09-09T05:38:55;3.96;;;3.85;;
73132;SDS011;61320;52.008;4.530;2022-09-09T05:41:21;3.25;;;3.12;;
73132;SDS011;61320;52.008;4.530;2022-09-09T05:43:48;3.24;;;3.24;;
73132;SDS011;61320;52.008;4.530;2022-09-09T05:46:14;3.55;;;3.54;;
73132;SDS011;61320;52.008;4.530;2022-09-09T05:48:43;3.18;;;3.18;;
73132;SDS011;61320;52.008;4.530;2022-09-09T05:51:14;3.17;;;3.17;;
73132;SDS011;61320;52.008;4.530;2022-09-09T05:53:43;3.20;;;3.20;;
73132;SDS011;61320;52.008;4.530;2022-09-09T05:56:10;2.93;;;2.92;;
73132;SDS011;61320;52.008;4.530;2022-09-09T05:58:40;3.25;;;3.21;;
73132;SDS011;61320;52.008;4.530;2022-09-09T06:01:11;3.48;;;3.30;;
73132;SDS011;61320;52.008;4.530;2022-09-09T06:03:57;3.46;;;3.20;;
73132;SDS011;61320;52.008;4.530;2022-09-09T06:06:24;3.55;;;3.38;;
73132;SDS011;61320;52.008;4.530;2022-09-09T06:08:52;3.66;;;3.40;;
73132;SDS011;61320;52.008;4.530;2022-09-09T06:11:23;4.50;;;4.07;;
73132;SDS011;61320;52.008;4.530;2022-09-09T06:13:51;5.36;;;4.99;;
73132;SDS011;61320;52.008;4.530;2022-09-09T06:16:19;4.63;;;4.35;;
73132;SDS011;61320;52.008;4.530;2022-09-09T06:18:48;3.31;;;3.02;;
73132;SDS011;61320;52.008;4.530;2022-09-09T06:21:18;3.47;;;3.09;;
73132;SDS011;61320;52.008;4.530;2022-09-09T06:23:45;3.37;;;3.01;;
73132;SDS011;61320;52.008;4.530;2022-09-09T06:26:16;3.83;;;3.37;;
73132;SDS011;61320;52.008;4.530;2022-09-09T06:28:44;3.73;;;3.28;;
73132;SDS011;61320;52.008;4.530;2022-09-09T06:31:13;4.20;;;3.58;;
73132;SDS011;61320;52.008;4.530;2022-09-09T06:33:46;4.07;;;3.50;;
73132;SDS011;61320;52.008;4.530;2022-09-09T06:36:14;3.79;;;3.32;;
73132;SDS011;61320;52.008;4.530;2022-09-09T06:38:48;3.78;;;3.39;;
73132;SDS011;61320;52.008;4.530;2022-09-09T06:41:14;3.59;;;3.21;;
73132;SDS011;61320;52.008;4.530;2022-09-09T06:43:43;3.71;;;3.31;;
73132;SDS011;61320;52.008;4.530;2022-09-09T06:46:10;3.56;;;3.34;;
73132;SDS011;61320;52.008;4.530;2022-09-09T06:48:36;3.17;;;3.17;;
73132;SDS011;61320;52.008;4.530;2022-09-09T06:51:04;4.00;;;3.70;;
73132;SDS011;61320;52.008;4.530;2022-09-09T06:53:32;4.06;;;3.60;;
73132;SDS011;61320;52.008;4.530;2022-09-09T06:55:59;4.18;;;3.79;;
73132;SDS011;61320;52.008;4.530;2022-09-09T06:58:42;3.81;;;3.52;;
73132;SDS011;61320;52.008;4.530;2022-09-09T07:01:10;3.78;;;3.77;;
73132;SDS011;61320;52.008;4.530;2022-09-09T07:03:38;4.37;;;4.37;;
73132;SDS011;61320;52.008;4.530;2022-09-09T07:06:05;10.02;;;10.02;;
73132;SDS011;61320;52.008;4.530;2022-09-09T07:08:31;4.23;;;4.23;;
73132;SDS011;61320;52.008;4.530;2022-09-09T07:11:03;3.84;;;3.84;;
73132;SDS011;61320;52.008;4.530;2022-09-09T07:13:30;3.77;;;3.77;;
73132;SDS011;61320;52.008;4.530;2022-09-09T07:16:06;3.86;;;3.86;;
73132;SDS011;61320;52.008;4.530;2022-09-09T07:18:34;3.86;;;3.86;;
73132;SDS011;61320;52.008;4.530;2022-09-09T07:21:00;4.02;;;4.02;;
73132;SDS011;61320;52.008;4.530;2022-09-09T07:23:27;4.36;;;4.36;;
73132;SDS011;61320;52.008;4.530;2022-09-09T07:25:53;4.39;;;4.39;;
73132;SDS011;61320;52.008;4.530;2022-09-09T07:28:19;4.40;;;4.40;;
73132;SDS011;61320;52.008;4.530;2022-09-09T07:30:59;4.29;;;4.29;;
73132;SDS011;61320;52.008;4.530;2022-09-09T07:33:29;4.41;;;4.41;;
73132;SDS011;61320;52.008;4.530;2022-09-09T07:36:04;4.55;;;4.55;;
73132;SDS011;61320;52.008;4.530;2022-09-09T07:38:39;4.65;;;4.65;;
73132;SDS011;61320;52.008;4.530;2022-09-09T07:41:07;4.83;;;4.83;;
73132;SDS011;61320;52.008;4.530;2022-09-09T07:43:39;4.70;;;4.70;;
73132;SDS011;61320;52.008;4.530;2022-09-09T07:46:07;4.70;;;4.70;;
73132;SDS011;61320;52.008;4.530;2022-09-09T07:48:34;4.67;;;4.67;;
73132;SDS011;61320;52.008;4.530;2022-09-09T07:51:07;4.95;;;4.95;;
73132;SDS011;61320;52.008;4.530;2022-09-09T07:53:37;4.80;;;4.80;;
73132;SDS011;61320;52.008;4.530;2022-09-09T07:56:04;4.48;;;4.48;;
73132;SDS011;61320;52.008;4.530;2022-09-09T07:58:30;4.58;;;4.58;;
73132;SDS011;61320;52.008;4.530;2022-09-09T08:00:56;4.78;;;4.78;;
73132;SDS011;61320;52.008;4.530;2022-09-09T08:03:22;4.33;;;4.33;;
73132;SDS011;61320;52.008;4.530;2022-09-09T08:05:48;4.26;;;4.26;;
73132;SDS011;61320;52.008;4.530;2022-09-09T08:08:14;4.30;;;4.30;;
73132;SDS011;61320;52.008;4.530;2022-09-09T08:10:42;4.38;;;4.38;;
73132;SDS011;61320;52.008;4.530;2022-09-09T08:13:08;4.09;;;4.09;;
73132;SDS011;61320;52.008;4.530;2022-09-09T08:15:34;4.01;;;4.01;;
73132;SDS011;61320;52.008;4.530;2022-09-09T08:17:59;4.20;;;4.20;;
73132;SDS011;61320;52.008;4.530;2022-09-09T08:20:25;3.92;;;3.92;;
73132;SDS011;61320;52.008;4.530;2022-09-09T08:22:50;4.29;;;4.29;;
73132;SDS011;61320;52.008;4.530;2022-09-09T08:25:15;4.07;;;4.07;;
73132;SDS011;61320;52.008;4.530;2022-09-09T08:27:41;3.78;;;3.78;;
73132;SDS011;61320;52.008;4.530;2022-09-09T08:30:06;3.95;;;3.95;;
73132;SDS011;61320;52.008;4.530;2022-09-09T08:32:32;4.32;;;4.32;;
73132;SDS011;61320;52.008;4.530;2022-09-09T08:35:00;4.49;;;4.49;;
73132;SDS011;61320;52.008;4.530;2022-09-09T08:37:25;4.26;;;4.26;;
73132;SDS011;61320;52.008;4.530;2022-09-09T08:39:51;4.36;;;4.36;;
73132;SDS011;61320;52.008;4.530;2022-09-09T08:42:23;4.09;;;4.09;;
73132;SDS011;61320;52.008;4.530;2022-09-09T08:44:59;3.90;;;3.90;;
73132;SDS011;61320;52.008;4.530;2022-09-09T08:50:25;4.16;;;4.16;;
73132;SDS011;61320;52.008;4.530;2022-09-09T08:56:32;4.28;;;4.28;;
73132;SDS011;61320;52.008;4.530;2022-09-09T08:58:43;4.17;;;4.17;;
73132;SDS011;61320;52.008;4.530;2022-09-09T09:01:39;4.04;;;4.04;;
73132;SDS011;61320;52.008;4.530;2022-09-09T09:04:30;4.17;;;4.17;;
73132;SDS011;61320;52.008;4.530;2022-09-09T09:12:55;4.75;;;4.75;;
73132;SDS011;61320;52.008;4.530;2022-09-09T09:15:23;4.69;;;4.69;;
73132;SDS011;61320;52.008;4.530;2022-09-09T09:17:55;4.62;;;4.62;;
73132;SDS011;61320;52.008;4.530;2022-09-09T09:20:23;4.73;;;4.73;;
73132;SDS011;61320;52.008;4.530;2022-09-09T09:23:06;4.53;;;4.53;;
73132;SDS011;61320;52.008;4.530;2022-09-09T09:25:47;4.26;;;4.26;;
73132;SDS011;61320;52.008;4.530;2022-09-09T09:28:16;4.51;;;4.51;;
73132;SDS011;61320;52.008;4.530;2022-09-09T09:33:14;4.71;;;4.71;;
73132;SDS011;61320;52.008;4.530;2022-09-09T09:35:48;4.66;;;4.66;;
73132;SDS011;61320;52.008;4.530;2022-09-09T09:38:19;4.64;;;4.64;;
73132;SDS011;61320;52.008;4.530;2022-09-09T09:40:48;4.67;;;4.67;;
73132;SDS011;61320;52.008;4.530;2022-09-09T09:43:28;4.43;;;4.43;;
73132;SDS011;61320;52.008;4.530;2022-09-09T09:46:04;4.56;;;4.56;;
73132;SDS011;61320;52.008;4.530;2022-09-09T09:48:30;5.04;;;5.04;;
73132;SDS011;61320;52.008;4.530;2022-09-09T09:50:58;4.55;;;4.55;;
73132;SDS011;61320;52.008;4.530;2022-09-09T09:53:31;4.54;;;4.54;;
73132;SDS011;61320;52.008;4.530;2022-09-09T09:56:00;4.84;;;4.84;;
73132;SDS011;61320;52.008;4.530;2022-09-09T09:58:31;4.55;;;4.55;;
73132;SDS011;61320;52.008;4.530;2022-09-09T10:01:22;4.57;;;4.57;;
73132;SDS011;61320;52.008;4.530;2022-09-09T10:03:54;4.29;;;4.29;;
73132;SDS011;61320;52.008;4.530;2022-09-09T10:06:34;4.42;;;4.42;;
73132;SDS011;61320;52.008;4.530;2022-09-09T10:09:03;3.87;;;3.87;;
73132;SDS011;61320;52.008;4.530;2022-09-09T10:11:48;4.31;;;4.31;;
73132;SDS011;61320;52.008;4.530;2022-09-09T10:14:57;3.91;;;3.91;;
73132;SDS011;61320;52.008;4.530;2022-09-09T10:20:17;3.89;;;3.89;;
73132;SDS011;61320;52.008;4.530;2022-09-09T10:22:54;4.09;;;4.09;;
73132;SDS011;61320;52.008;4.530;2022-09-09T10:36:46;3.91;;;3.91;;
73132;SDS011;61320;52.008;4.530;2022-09-09T10:39:23;4.18;;;4.18;;
73132;SDS011;61320;52.008;4.530;2022-09-09T10:42:07;4.03;;;4.03;;
73132;SDS011;61320;52.008;4.530;2022-09-09T10:47:55;3.88;;;3.88;;
73132;SDS011;61320;52.008;4.530;2022-09-09T10:53:09;3.62;;;3.62;;
73132;SDS011;61320;52.008;4.530;2022-09-09T10:55:53;3.36;;;3.36;;
73132;SDS011;61320;52.008;4.530;2022-09-09T10:58:35;3.75;;;3.75;;
73132;SDS011;61320;52.008;4.530;2022-09-09T11:01:13;3.62;;;3.62;;
73132;SDS011;61320;52.008;4.530;2022-09-09T11:03:47;3.68;;;3.68;;
73132;SDS011;61320;52.008;4.530;2022-09-09T11:06:27;3.83;;;3.83;;
73132;SDS011;61320;52.008;4.530;2022-09-09T11:09:02;3.97;;;3.97;;
73132;SDS011;61320;52.008;4.530;2022-09-09T11:11:41;3.83;;;3.83;;
73132;SDS011;61320;52.008;4.530;2022-09-09T11:14:26;3.89;;;3.89;;
73132;SDS011;61320;52.008;4.530;2022-09-09T11:16:59;4.02;;;4.02;;
73132;SDS011;61320;52.008;4.530;2022-09-09T11:19:41;4.08;;;4.08;;
73132;SDS011;61320;52.008;4.530;2022-09-09T11:39:41;4.01;;;4.01;;
73132;SDS011;61320;52.008;4.530;2022-09-09T11:42:23;4.31;;;4.31;;
73132;SDS011;61320;52.008;4.530;2022-09-09T11:44:50;3.96;;;3.96;;
73132;SDS011;61320;52.008;4.530;2022-09-09T11:47:20;3.94;;;3.94;;
73132;SDS011;61320;52.008;4.530;2022-09-09T11:50:09;4.07;;;4.07;;
73132;SDS011;61320;52.008;4.530;2022-09-09T11:53:02;3.95;;;3.95;;
73132;SDS011;61320;52.008;4.530;2022-09-09T11:56:02;3.93;;;3.93;;
73132;SDS011;61320;52.008;4.530;2022-09-09T11:58:34;4.65;;;4.65;;
73132;SDS011;61320;52.008;4.530;2022-09-09T12:01:25;4.77;;;4.77;;
73132;SDS011;61320;52.008;4.530;2022-09-09T12:04:46;4.64;;;4.64;;
73132;SDS011;61320;52.008;4.530;2022-09-09T12:17:20;4.32;;;4.32;;
73132;SDS011;61320;52.008;4.530;2022-09-09T12:19:48;4.43;;;4.43;;
73132;SDS011;61320;52.008;4.530;2022-09-09T12:25:00;4.25;;;4.25;;
73132;SDS011;61320;52.008;4.530;2022-09-09T12:27:46;4.24;;;4.24;;
73132;SDS011;61320;52.008;4.530;2022-09-09T12:30:45;4.47;;;4.47;;
73132;SDS011;61320;52.008;4.530;2022-09-09T12:33:33;4.20;;;4.20;;
73132;SDS011;61320;52.008;4.530;2022-09-09T12:36:01;3.38;;;3.38;;
73132;SDS011;61320;52.008;4.530;2022-09-09T12:38:35;3.68;;;3.68;;
73132;SDS011;61320;52.008;4.530;2022-09-09T12:41:03;3.74;;;3.74;;
73132;SDS011;61320;52.008;4.530;2022-09-09T12:43:29;4.09;;;4.09;;
73132;SDS011;61320;52.008;4.530;2022-09-09T12:45:59;4.64;;;4.64;;
73132;SDS011;61320;52.008;4.530;2022-09-09T12:48:37;4.73;;;4.73;;
73132;SDS011;61320;52.008;4.530;2022-09-09T12:51:19;4.92;;;4.92;;
73132;SDS011;61320;52.008;4.530;2022-09-09T12:53:55;4.29;;;4.29;;
73132;SDS011;61320;52.008;4.530;2022-09-09T12:56:22;4.13;;;4.13;;
73132;SDS011;61320;52.008;4.530;2022-09-09T12:58:52;4.55;;;4.55;;
73132;SDS011;61320;52.008;4.530;2022-09-09T13:01:25;4.27;;;4.27;;
73132;SDS011;61320;52.008;4.530;2022-09-09T13:03:55;4.24;;;4.24;;
73132;SDS011;61320;52.008;4.530;2022-09-09T13:06:25;4.19;;;4.19;;
73132;SDS011;61320;52.008;4.530;2022-09-09T13:08:53;3.67;;;3.67;;
73132;SDS011;61320;52.008;4.530;2022-09-09T13:11:22;3.54;;;3.54;;
73132;SDS011;61320;52.008;4.530;2022-09-09T13:13:56;3.56;;;3.56;;
73132;SDS011;61320;52.008;4.530;2022-09-09T13:18:58;3.28;;;3.28;;
73132;SDS011;61320;52.008;4.530;2022-09-09T13:21:33;3.06;;;3.06;;
73132;SDS011;61320;52.008;4.530;2022-09-09T13:24:00;2.72;;;2.72;;
73132;SDS011;61320;52.008;4.530;2022-09-09T13:26:28;2.38;;;2.38;;
73132;SDS011;61320;52.008;4.530;2022-09-09T13:28:55;2.35;;;2.35;;
73132;SDS011;61320;52.008;4.530;2022-09-09T13:31:42;2.25;;;2.25;;
73132;SDS011;61320;52.008;4.530;2022-09-09T13:34:22;2.37;;;2.37;;
73132;SDS011;61320;52.008;4.530;2022-09-09T13:36:55;2.34;;;2.34;;
73132;SDS011;61320;52.008;4.530;2022-09-09T13:39:31;2.50;;;2.50;;
73132;SDS011;61320;52.008;4.530;2022-09-09T13:42:02;2.59;;;2.59;;
73132;SDS011;61320;52.008;4.530;2022-09-09T13:44:30;2.66;;;2.66;;
73132;SDS011;61320;52.008;4.530;2022-09-09T13:47:06;2.57;;;2.57;;
73132;SDS011;61320;52.008;4.530;2022-09-09T13:49:44;2.47;;;2.47;;
73132;SDS011;61320;52.008;4.530;2022-09-09T13:52:11;2.73;;;2.73;;
73132;SDS011;61320;52.008;4.530;2022-09-09T13:54:39;3.20;;;3.20;;
73132;SDS011;61320;52.008;4.530;2022-09-09T13:57:16;3.24;;;3.24;;
73132;SDS011;61320;52.008;4.530;2022-09-09T13:59:46;3.38;;;3.38;;
73132;SDS011;61320;52.008;4.530;2022-09-09T14:02:12;2.87;;;2.87;;
73132;SDS011;61320;52.008;4.530;2022-09-09T14:04:38;2.75;;;2.75;;
73132;SDS011;61320;52.008;4.530;2022-09-09T14:07:07;3.00;;;3.00;;
73132;SDS011;61320;52.008;4.530;2022-09-09T14:09:44;2.48;;;2.48;;
73132;SDS011;61320;52.008;4.530;2022-09-09T14:12:15;2.48;;;2.48;;
73132;SDS011;61320;52.008;4.530;2022-09-09T14:14:41;2.45;;;2.45;;
73132;SDS011;61320;52.008;4.530;2022-09-09T14:17:08;2.07;;;2.07;;
73132;SDS011;61320;52.008;4.530;2022-09-09T14:19:34;2.05;;;2.05;;
73132;SDS011;61320;52.008;4.530;2022-09-09T14:21:59;2.09;;;2.09;;
73132;SDS011;61320;52.008;4.530;2022-09-09T14:24:26;2.03;;;2.03;;
73132;SDS011;61320;52.008;4.530;2022-09-09T14:26:53;1.81;;;1.81;;
73132;SDS011;61320;52.008;4.530;2022-09-09T14:29:19;1.56;;;1.56;;
73132;SDS011;61320;52.008;4.530;2022-09-09T14:31:44;1.83;;;1.83;;
73132;SDS011;61320;52.008;4.530;2022-09-09T14:34:10;1.84;;;1.84;;
73132;SDS011;61320;52.008;4.530;2022-09-09T14:36:36;1.94;;;1.94;;
73132;SDS011;61320;52.008;4.530;2022-09-09T14:39:02;1.93;;;1.93;;
73132;SDS011;61320;52.008;4.530;2022-09-09T14:41:29;2.08;;;2.08;;
73132;SDS011;61320;52.008;4.530;2022-09-09T14:43:55;2.18;;;2.18;;
73132;SDS011;61320;52.008;4.530;2022-09-09T14:46:21;2.21;;;2.21;;
73132;SDS011;61320;52.008;4.530;2022-09-09T14:48:47;2.18;;;2.18;;
73132;SDS011;61320;52.008;4.530;2022-09-09T14:51:20;1.95;;;1.95;;
73132;SDS011;61320;52.008;4.530;2022-09-09T14:53:50;2.31;;;2.31;;
73132;SDS011;61320;52.008;4.530;2022-09-09T14:56:18;2.07;;;2.07;;
73132;SDS011;61320;52.008;4.530;2022-09-09T14:58:48;1.82;;;1.81;;
73132;SDS011;61320;52.008;4.530;2022-09-09T15:01:14;2.31;;;2.08;;
73132;SDS011;61320;52.008;4.530;2022-09-09T15:03:49;2.23;;;1.97;;
73132;SDS011;61320;52.008;4.530;2022-09-09T15:06:36;2.53;;;2.20;;
73132;SDS011;61320;52.008;4.530;2022-09-09T15:09:04;2.75;;;2.37;;
73132;SDS011;61320;52.008;4.530;2022-09-09T15:11:32;2.47;;;2.11;;
73132;SDS011;61320;52.008;4.530;2022-09-09T15:14:02;2.74;;;2.33;;
73132;SDS011;61320;52.008;4.530;2022-09-09T15:16:29;2.72;;;2.26;;
73132;SDS011;61320;52.008;4.530;2022-09-09T15:18:55;2.46;;;2.10;;
73132;SDS011;61320;52.008;4.530;2022-09-09T15:21:24;2.53;;;2.19;;
73132;SDS011;61320;52.008;4.530;2022-09-09T15:23:51;2.75;;;2.39;;
73132;SDS011;61320;52.008;4.530;2022-09-09T15:26:17;2.84;;;2.51;;
73132;SDS011;61320;52.008;4.530;2022-09-09T15:28:44;11.57;;;11.12;;
73132;SDS011;61320;52.008;4.530;2022-09-09T15:31:16;4.20;;;4.17;;
73132;SDS011;61320;52.008;4.530;2022-09-09T15:33:53;2.25;;;2.21;;
73132;SDS011;61320;52.008;4.530;2022-09-09T15:39:06;2.84;;;2.72;;
73132;SDS011;61320;52.008;4.530;2022-09-09T15:41:38;2.65;;;2.45;;
73132;SDS011;61320;52.008;4.530;2022-09-09T15:44:04;3.01;;;2.79;;
73132;SDS011;61320;52.008;4.530;2022-09-09T15:49:10;3.13;;;2.96;;
73132;SDS011;61320;52.008;4.530;2022-09-09T15:51:39;3.74;;;3.70;;
73132;SDS011;61320;52.008;4.530;2022-09-09T15:54:07;3.76;;;3.76;;
73132;SDS011;61320;52.008;4.530;2022-09-09T15:56:34;4.25;;;4.25;;
73132;SDS011;61320;52.008;4.530;2022-09-09T15:59:00;4.18;;;4.18;;
73132;SDS011;61320;52.008;4.530;2022-09-09T16:01:28;5.16;;;5.16;;
73132;SDS011;61320;52.008;4.530;2022-09-09T16:03:55;5.32;;;5.32;;
73132;SDS011;61320;52.008;4.530;2022-09-09T16:06:22;5.53;;;5.53;;
73132;SDS011;61320;52.008;4.530;2022-09-09T16:08:50;5.91;;;5.91;;
73132;SDS011;61320;52.008;4.530;2022-09-09T16:11:18;6.50;;;6.50;;
73132;SDS011;61320;52.008;4.530;2022-09-09T16:13:48;6.16;;;6.16;;
73132;SDS011;61320;52.008;4.530;2022-09-09T16:16:15;6.86;;;6.86;;
73132;SDS011;61320;52.008;4.530;2022-09-09T16:18:48;7.18;;;7.18;;
73132;SDS011;61320;52.008;4.530;2022-09-09T16:21:19;7.22;;;7.22;;
73132;SDS011;61320;52.008;4.530;2022-09-09T16:23:49;6.68;;;6.68;;
73132;SDS011;61320;52.008;4.530;2022-09-09T16:26:16;6.27;;;6.27;;
73132;SDS011;61320;52.008;4.530;2022-09-09T16:28:43;6.33;;;6.33;;
73132;SDS011;61320;52.008;4.530;2022-09-09T16:31:12;6.43;;;6.43;;
73132;SDS011;61320;52.008;4.530;2022-09-09T16:33:40;6.69;;;6.69;;
73132;SDS011;61320;52.008;4.530;2022-09-09T16:36:07;6.97;;;6.97;;
73132;SDS011;61320;52.008;4.530;2022-09-09T16:38:35;7.15;;;7.15;;
73132;SDS011;61320;52.008;4.530;2022-09-09T16:41:02;7.82;;;7.82;;
73132;SDS011;61320;52.008;4.530;2022-09-09T16:43:31;7.20;;;7.20;;
73132;SDS011;61320;52.008;4.530;2022-09-09T16:45:58;6.60;;;6.60;;
73132;SDS011;61320;52.008;4.530;2022-09-09T16:48:26;6.02;;;6.02;;
73132;SDS011;61320;52.008;4.530;2022-09-09T16:50:52;5.70;;;5.70;;
73132;SDS011;61320;52.008;4.530;2022-09-09T16:53:18;4.97;;;4.97;;
73132;SDS011;61320;52.008;4.530;2022-09-09T16:55:43;4.33;;;4.33;;